Time;durP1;ratioP1;P1;durP2;ratioP2;P2;SDS_P1;SDS_P2;PMS_P1;PMS_P2;Temp;Humidity;BMP_temperature;BMP_pressure;BME280_temperature;BME280_humidity;BME280_pressure;Samples;Min_cycle;Max_cycle;Signal;HPM_P1;HPM_P2
2022/05/29 00:01:51;;;;;;;3.70;1.20;;;;;;;;;;8306272;28;20510;-57
2022/05/29 00:05:51;;;;;;;4.10;1.40;;;;;;;;;;8305136;28;20301;-58
2022/05/29 00:09:52;;;;;;;4.50;1.20;;;;;;;;;;8307035;28;20070;-58
2022/05/29 00:13:52;;;;;;;4.47;1.42;;;;;;;;;;8305499;28;20029;-58
2022/05/29 00:17:52;;;;;;;5.47;1.55;;;;;;;;;;8305551;28;21125;-58
2022/05/29 00:21:52;;;;;;;5.28;1.80;;;;;;;;;;8304021;28;20032;-59
2022/05/29 00:25:53;;;;;;;6.70;1.60;;;;;;;;;;8304392;28;20155;-58
2022/05/29 00:29:53;;;;;;;3.47;1.20;;;;;;;;;;8306717;28;20399;-57
2022/05/29 00:33:54;;;;;;;3.72;1.40;;;;;;;;;;8303882;28;20275;-58
2022/05/29 00:37:54;;;;;;;3.80;1.30;;;;;;;;;;8305723;28;20103;-57
2022/05/29 00:41:54;;;;;;;4.65;1.17;;;;;;;;;;8305749;28;20029;-57
2022/05/29 00:45:57;;;;;;;3.83;1.20;;;;;;;;;;8304129;28;20407;-57
2022/05/29 00:49:58;;;;;;;4.95;1.27;;;;;;;;;;8304741;28;20092;-58
2022/05/29 00:53:59;;;;;;;6.90;1.52;;;;;;;;;;8306423;28;20508;-57
2022/05/29 00:58:01;;;;;;;4.38;1.40;;;;;;;;;;8306868;28;20091;-57
2022/05/29 01:02:02;;;;;;;2.97;1.25;;;;;;;;;;8306703;28;20037;-57
2022/05/29 01:06:03;;;;;;;7.22;1.50;;;;;;;;;;8306257;28;20156;-58
2022/05/29 01:10:04;;;;;;;3.67;1.10;;;;;;;;;;8303972;28;20685;-59
2022/05/29 01:14:07;;;;;;;4.85;1.10;;;;;;;;;;8305661;28;20476;-58
2022/05/29 01:18:17;;;;;;;4.82;1.38;;;;;;;;;;8304935;28;20051;-58
2022/05/29 01:22:29;;;;;;;4.07;1.30;;;;;;;;;;8305703;28;20040;-58
2022/05/29 01:26:57;;;;;;;5.22;1.42;;;;;;;;;;8310452;28;20021;-57
2022/05/29 01:31:01;;;;;;;3.30;1.13;;;;;;;;;;8311583;28;20138;-58
2022/05/29 01:35:16;;;;;;;4.55;1.48;;;;;;;;;;8311439;28;20071;-58
2022/05/29 01:39:22;;;;;;;4.47;1.25;;;;;;;;;;8310331;28;20033;-58
2022/05/29 01:43:25;;;;;;;6.32;1.40;;;;;;;;;;8309857;28;20709;-58
2022/05/29 01:47:28;;;;;;;5.30;1.80;;;;;;;;;;8310317;28;20608;-57
2022/05/29 01:51:38;;;;;;;4.68;1.67;;;;;;;;;;8310724;28;20031;-58
2022/05/29 01:55:59;;;;;;;4.45;1.30;;;;;;;;;;8310914;28;20124;-57
2022/05/29 02:00:01;;;;;;;4.95;1.38;;;;;;;;;;8309179;28;20098;-58
2022/05/29 02:04:03;;;;;;;4.20;1.40;;;;;;;;;;8310420;28;20650;-58
2022/05/29 02:08:06;;;;;;;4.90;1.50;;;;;;;;;;8310318;28;20490;-58
2022/05/29 02:12:09;;;;;;;2.95;1.33;;;;;;;;;;8309927;28;20036;-58
2022/05/29 02:16:14;;;;;;;8.13;1.70;;;;;;;;;;8308666;28;20041;-58
2022/05/29 02:20:18;;;;;;;5.40;1.40;;;;;;;;;;8308595;28;20164;-57
2022/05/29 02:24:20;;;;;;;5.05;1.85;;;;;;;;;;8309711;28;20021;-57
2022/05/29 02:28:34;;;;;;;3.88;1.27;;;;;;;;;;8306695;28;20497;-57
2022/05/29 02:32:54;;;;;;;2.95;1.17;;;;;;;;;;8309524;28;20045;-59
2022/05/29 02:37:01;;;;;;;7.10;1.33;;;;;;;;;;8306031;28;20387;-58
2022/05/29 02:41:08;;;;;;;4.15;1.50;;;;;;;;;;8309710;28;20020;-58
2022/05/29 02:45:14;;;;;;;7.32;1.73;;;;;;;;;;8307476;28;20033;-58
2022/05/29 02:49:19;;;;;;;8.98;1.55;;;;;;;;;;8311001;28;20033;-57
2022/05/29 02:53:19;;;;;;;4.60;1.40;;;;;;;;;;8309136;28;20037;-58
2022/05/29 02:57:19;;;;;;;7.20;1.45;;;;;;;;;;8309178;28;20147;-57
2022/05/29 03:01:31;;;;;;;8.93;1.75;;;;;;;;;;8308964;28;20497;-57
2022/05/29 03:05:41;;;;;;;6.03;1.60;;;;;;;;;;8307993;28;20351;-58
2022/05/29 03:09:44;;;;;;;4.68;1.30;;;;;;;;;;8309802;28;20623;-58
2022/05/29 03:13:47;;;;;;;4.15;1.30;;;;;;;;;;8308635;28;20025;-59
2022/05/29 03:17:54;;;;;;;3.88;1.45;;;;;;;;;;8306874;28;20434;-59
2022/05/29 03:22:12;;;;;;;5.28;1.70;;;;;;;;;;8307755;28;20052;-58
2022/05/29 03:26:18;;;;;;;5.40;1.50;;;;;;;;;;8307024;28;20087;-58
2022/05/29 03:30:20;;;;;;;4.82;1.40;;;;;;;;;;8308428;28;20056;-58
2022/05/29 03:34:21;;;;;;;5.00;1.20;;;;;;;;;;8308200;28;20068;-59
2022/05/29 03:38:22;;;;;;;3.45;1.13;;;;;;;;;;8308405;28;21004;-58
2022/05/29 03:42:22;;;;;;;6.07;1.30;;;;;;;;;;8307525;28;20025;-59
2022/05/29 03:46:22;;;;;;;4.70;1.40;;;;;;;;;;8309228;28;20037;-58
2022/05/29 03:50:23;;;;;;;6.80;1.70;;;;;;;;;;8307619;28;20264;-58
2022/05/29 03:54:23;;;;;;;4.82;1.38;;;;;;;;;;8309059;28;20044;-59
2022/05/29 03:58:24;;;;;;;6.95;1.50;;;;;;;;;;8308437;28;20513;-59
2022/05/29 04:02:24;;;;;;;3.58;1.35;;;;;;;;;;8309271;28;20884;-57
2022/05/29 04:06:25;;;;;;;5.53;1.77;;;;;;;;;;8311078;28;20036;-58
2022/05/29 04:14:44;;;;;;;5.57;1.15;;;;;;;;;;8308257;28;20113;-58
2022/05/29 04:18:45;;;;;;;3.35;1.42;;;;;;;;;;8307626;28;20069;-58
2022/05/29 04:22:45;;;;;;;3.97;1.50;;;;;;;;;;8309037;28;20028;-59
2022/05/29 04:26:46;;;;;;;6.93;1.83;;;;;;;;;;8308585;28;20043;-58
2022/05/29 04:30:46;;;;;;;4.72;1.25;;;;;;;;;;8306560;28;20041;-59
2022/05/29 04:34:46;;;;;;;3.45;1.35;;;;;;;;;;8306803;28;20133;-58
2022/05/29 04:38:46;;;;;;;5.00;1.45;;;;;;;;;;8308419;28;20033;-57
2022/05/29 04:42:46;;;;;;;5.57;1.30;;;;;;;;;;8306461;28;20021;-59
2022/05/29 04:46:46;;;;;;;8.55;1.30;;;;;;;;;;8306996;28;20949;-59
2022/05/29 04:50:47;;;;;;;5.22;1.33;;;;;;;;;;8307445;28;20922;-57
2022/05/29 04:54:47;;;;;;;5.30;1.42;;;;;;;;;;8306165;28;20156;-57
2022/05/29 04:58:47;;;;;;;5.63;1.20;;;;;;;;;;8306651;28;20102;-58
2022/05/29 05:02:48;;;;;;;5.82;1.70;;;;;;;;;;8313182;28;20061;-59
2022/05/29 05:06:48;;;;;;;3.03;1.15;;;;;;;;;;8313969;28;20044;-58
2022/05/29 05:10:48;;;;;;;6.38;1.30;;;;;;;;;;8313578;28;20099;-58
2022/05/29 05:14:49;;;;;;;2.50;1.00;;;;;;;;;;8312773;28;20945;-59
2022/05/29 05:18:49;;;;;;;4.38;1.50;;;;;;;;;;8313189;28;20103;-58
2022/05/29 05:22:51;;;;;;;4.63;1.40;;;;;;;;;;8313194;28;20161;-58
2022/05/29 05:26:51;;;;;;;4.53;1.40;;;;;;;;;;8313120;28;20033;-59
2022/05/29 05:30:51;;;;;;;3.85;1.30;;;;;;;;;;8313934;28;20410;-58
2022/05/29 05:34:53;;;;;;;4.63;1.30;;;;;;;;;;8313530;28;20533;-59
2022/05/29 05:38:53;;;;;;;3.43;1.30;;;;;;;;;;8315724;28;20436;-58
2022/05/29 05:42:53;;;;;;;4.80;1.60;;;;;;;;;;8312828;28;20744;-59
2022/05/29 05:46:54;;;;;;;4.32;1.65;;;;;;;;;;8313897;28;20136;-58
2022/05/29 05:50:55;;;;;;;4.68;1.30;;;;;;;;;;8313729;28;20829;-59
2022/05/29 05:54:56;;;;;;;3.95;1.20;;;;;;;;;;8314183;28;20148;-59
2022/05/29 05:58:56;;;;;;;2.92;1.50;;;;;;;;;;8312412;28;20087;-60
2022/05/29 06:02:56;;;;;;;3.88;1.30;;;;;;;;;;8312553;28;20029;-59
2022/05/29 06:06:56;;;;;;;3.57;1.20;;;;;;;;;;8316303;28;20044;-59
2022/05/29 06:10:57;;;;;;;4.95;1.40;;;;;;;;;;8312573;28;20032;-59
2022/05/29 06:14:57;;;;;;;3.97;1.53;;;;;;;;;;8310140;28;20028;-59
2022/05/29 06:18:58;;;;;;;3.38;1.45;;;;;;;;;;8311542;28;20558;-59
2022/05/29 06:22:58;;;;;;;4.05;1.30;;;;;;;;;;8311702;28;20029;-59
2022/05/29 06:26:58;;;;;;;4.83;1.47;;;;;;;;;;8311974;28;20135;-59
2022/05/29 06:30:59;;;;;;;4.40;1.42;;;;;;;;;;8308968;28;20041;-60
2022/05/29 06:34:59;;;;;;;7.93;1.55;;;;;;;;;;8311237;28;20033;-59
2022/05/29 06:38:59;;;;;;;5.43;1.30;;;;;;;;;;8311844;28;20111;-59
2022/05/29 06:43:00;;;;;;;4.32;1.45;;;;;;;;;;8312801;28;20045;-59
2022/05/29 06:47:07;;;;;;;5.38;1.70;;;;;;;;;;8312791;28;20044;-59
2022/05/29 06:51:07;;;;;;;4.18;1.55;;;;;;;;;;8310186;28;20021;-59
2022/05/29 06:55:08;;;;;;;3.92;1.27;;;;;;;;;;8311836;28;20551;-59
2022/05/29 06:59:08;;;;;;;4.32;1.50;;;;;;;;;;8310188;28;20058;-60
2022/05/29 07:07:30;;;;;;;2.80;1.30;;;;;;;;;;8310871;28;20383;-59
2022/05/29 07:11:31;;;;;;;3.83;1.50;;;;;;;;;;8312725;28;20117;-59
2022/05/29 07:15:32;;;;;;;3.97;1.55;;;;;;;;;;8309183;28;20128;-59
2022/05/29 07:19:34;;;;;;;3.40;1.40;;;;;;;;;;8311143;28;20032;-59
2022/05/29 07:23:35;;;;;;;3.75;1.50;;;;;;;;;;8309278;28;20054;-59
2022/05/29 07:27:35;;;;;;;4.10;1.38;;;;;;;;;;8311168;28;20028;-59
2022/05/29 07:31:35;;;;;;;3.07;1.13;;;;;;;;;;8309721;28;20037;-59
2022/05/29 07:35:35;;;;;;;4.90;1.30;;;;;;;;;;8311476;28;20063;-59
2022/05/29 07:39:40;;;;;;;3.55;1.30;;;;;;;;;;8311521;28;20108;-59
2022/05/29 07:43:40;;;;;;;5.00;1.48;;;;;;;;;;8310760;28;20016;-58
2022/05/29 07:47:42;;;;;;;2.92;1.33;;;;;;;;;;8308796;28;20035;-58
2022/05/29 07:51:42;;;;;;;4.97;1.55;;;;;;;;;;8307959;28;20055;-59
2022/05/29 07:55:43;;;;;;;2.42;1.10;;;;;;;;;;8309905;28;20473;-58
2022/05/29 07:59:43;;;;;;;3.67;1.27;;;;;;;;;;8309817;28;20017;-59
2022/05/29 08:03:43;;;;;;;3.83;1.50;;;;;;;;;;8309005;28;20439;-58
2022/05/29 08:07:44;;;;;;;4.22;1.33;;;;;;;;;;8306636;28;20021;-59
2022/05/29 08:11:44;;;;;;;3.75;1.10;;;;;;;;;;8308047;28;20028;-59
2022/05/29 08:15:45;;;;;;;3.67;1.25;;;;;;;;;;8308789;28;20035;-58
2022/05/29 08:19:45;;;;;;;4.07;1.10;;;;;;;;;;8308113;28;20028;-59
2022/05/29 08:30:37;;;;;;;1.77;1.00;;;;;;;;;;8308554;28;20899;-59
2022/05/29 08:32:25;;;;;;;3.20;1.20;;;;;;;;;;8307897;28;20171;-59
2022/05/29 08:36:26;;;;;;;3.95;1.17;;;;;;;;;;8315685;28;20438;-59
2022/05/29 08:40:26;;;;;;;1.85;0.90;;;;;;;;;;8313549;28;20108;-58
2022/05/29 08:44:32;;;;;;;2.80;1.00;;;;;;;;;;8314044;28;20067;-59
2022/05/29 08:48:33;;;;;;;3.13;1.10;;;;;;;;;;8316269;28;20097;-58
2022/05/29 08:52:56;;;;;;;3.35;1.33;;;;;;;;;;8312816;28;20102;-59
2022/05/29 08:56:59;;;;;;;3.42;1.00;;;;;;;;;;8314152;28;20029;-59
2022/05/29 09:00:59;;;;;;;3.25;1.10;;;;;;;;;;8310144;28;20111;-59
2022/05/29 09:05:06;;;;;;;3.47;1.02;;;;;;;;;;8312000;28;20025;-59
2022/05/29 09:09:19;;;;;;;3.45;1.02;;;;;;;;;;8315575;28;20032;-60
2022/05/29 09:13:41;;;;;;;7.22;1.15;;;;;;;;;;8310171;28;20490;-59
2022/05/29 09:17:47;;;;;;;2.05;0.90;;;;;;;;;;8309746;28;20073;-58
2022/05/29 09:21:56;;;;;;;2.78;1.20;;;;;;;;;;8304635;28;20034;-58
2022/05/29 09:25:57;;;;;;;3.40;1.02;;;;;;;;;;8304882;28;20899;-64
2022/05/29 09:29:57;;;;;;;1.45;0.80;;;;;;;;;;8304668;28;20052;-58
2022/05/29 09:33:58;;;;;;;3.17;1.20;;;;;;;;;;8303226;28;20037;-58
2022/05/29 09:37:59;;;;;;;3.67;1.10;;;;;;;;;;8305166;28;20788;-58
2022/05/29 09:42:04;;;;;;;1.77;0.90;;;;;;;;;;8304214;28;20025;-58
2022/05/29 09:46:23;;;;;;;2.90;1.20;;;;;;;;;;8302026;28;20418;-58
2022/05/29 09:50:36;;;;;;;3.72;1.17;;;;;;;;;;8305674;28;20036;-58
2022/05/29 09:54:43;;;;;;;2.78;0.90;;;;;;;;;;8303674;28;20068;-59
2022/05/29 09:58:59;;;;;;;4.13;1.10;;;;;;;;;;8303593;28;20017;-58
2022/05/29 10:03:00;;;;;;;3.85;1.25;;;;;;;;;;8302900;28;20026;-58
2022/05/29 10:07:10;;;;;;;2.78;1.10;;;;;;;;;;8305941;28;20410;-59
2022/05/29 10:11:21;;;;;;;3.55;1.30;;;;;;;;;;8302649;28;20541;-59
2022/05/29 10:15:24;;;;;;;4.65;1.20;;;;;;;;;;8303977;28;20040;-59
2022/05/29 10:19:33;;;;;;;4.93;1.33;;;;;;;;;;8303412;28;20503;-58
2022/05/29 10:23:34;;;;;;;4.25;1.38;;;;;;;;;;8304482;28;20071;-58
2022/05/29 10:27:35;;;;;;;1.65;0.90;;;;;;;;;;8303421;28;20029;-58
2022/05/29 10:31:36;;;;;;;2.72;1.00;;;;;;;;;;8303301;28;20329;-58
2022/05/29 10:35:37;;;;;;;5.25;1.00;;;;;;;;;;8306029;28;20585;-58
2022/05/29 10:39:38;;;;;;;2.65;1.13;;;;;;;;;;8302697;28;20065;-58
2022/05/29 10:43:44;;;;;;;2.00;1.20;;;;;;;;;;8303663;28;20041;-58
2022/05/29 10:47:52;;;;;;;4.13;1.20;;;;;;;;;;8300127;28;20086;-58
2022/05/29 10:51:53;;;;;;;1.75;1.05;;;;;;;;;;8304805;28;20031;-58
2022/05/29 10:56:09;;;;;;;1.88;0.98;;;;;;;;;;8302686;28;20044;-58
2022/05/29 11:00:28;;;;;;;3.28;1.10;;;;;;;;;;8302034;28;20119;-59
2022/05/29 11:04:31;;;;;;;2.70;1.10;;;;;;;;;;8301076;28;20029;-58
2022/05/29 11:08:40;;;;;;;1.50;1.10;;;;;;;;;;8303752;28;20039;-59
2022/05/29 11:13:03;;;;;;;3.75;1.35;;;;;;;;;;8301773;28;20609;-58
2022/05/29 11:17:09;;;;;;;3.15;1.38;;;;;;;;;;8297815;28;20041;-58
2022/05/29 11:21:19;;;;;;;3.83;1.13;;;;;;;;;;8301797;28;20060;-58
2022/05/29 11:25:19;;;;;;;2.03;1.10;;;;;;;;;;8299563;28;20047;-60
2022/05/29 11:29:23;;;;;;;1.80;1.20;;;;;;;;;;8303651;28;20030;-58
2022/05/29 11:33:23;;;;;;;;;;;;;;;;;;8305236;28;20401;-59
2022/05/29 11:37:23;;;;;;;3.03;1.20;;;;;;;;;;8303572;28;19923;-57
2022/05/29 11:41:30;;;;;;;2.95;1.20;;;;;;;;;;8303280;28;20021;-59
2022/05/29 11:55:00;;;;;;;1.80;1.20;;;;;;;;;;8304785;28;20629;-58
2022/05/29 11:59:16;;;;;;;3.20;1.50;;;;;;;;;;8305245;28;20029;-58
2022/05/29 12:03:25;;;;;;;2.42;1.10;;;;;;;;;;8305011;28;20655;-59
2022/05/29 12:07:32;;;;;;;2.40;1.23;;;;;;;;;;8304734;28;20970;-59
2022/05/29 12:11:44;;;;;;;2.65;1.30;;;;;;;;;;8304797;28;20026;-59
2022/05/29 12:15:47;;;;;;;3.17;1.40;;;;;;;;;;8305661;28;20087;-58
2022/05/29 12:19:50;;;;;;;2.25;1.23;;;;;;;;;;8303486;28;20029;-58
2022/05/29 12:23:52;;;;;;;3.95;1.17;;;;;;;;;;8304395;28;20025;-58
2022/05/29 12:27:53;;;;;;;2.13;1.30;;;;;;;;;;8306875;28;20021;-58
2022/05/29 12:31:57;;;;;;;3.22;1.40;;;;;;;;;;8298357;28;20446;-58
2022/05/29 12:35:58;;;;;;;2.22;1.27;;;;;;;;;;8303176;28;20138;-59
2022/05/29 12:40:09;;;;;;;1.85;1.20;;;;;;;;;;8299358;28;20024;-59
2022/05/29 12:44:25;;;;;;;1.55;1.10;;;;;;;;;;8299839;28;20029;-58
2022/05/29 12:48:27;;;;;;;2.70;1.33;;;;;;;;;;8299363;28;20033;-58
2022/05/29 12:52:36;;;;;;;1.40;1.20;;;;;;;;;;8299171;28;20465;-58
2022/05/29 12:56:55;;;;;;;2.58;1.10;;;;;;;;;;8301028;28;20068;-58
2022/05/29 13:01:06;;;;;;;1.17;1.00;;;;;;;;;;8297057;28;20030;-59
2022/05/29 13:05:20;;;;;;;1.67;1.10;;;;;;;;;;8302150;28;20029;-59
2022/05/29 13:09:20;;;;;;;1.77;1.00;;;;;;;;;;8299839;28;20018;-58
2022/05/29 13:13:30;;;;;;;2.78;1.10;;;;;;;;;;8298851;28;20094;-59
2022/05/29 13:17:32;;;;;;;1.90;1.10;;;;;;;;;;8299798;28;20037;-58
2022/05/29 13:21:50;;;;;;;3.08;1.30;;;;;;;;;;8299718;28;20413;-58
2022/05/29 13:25:57;;;;;;;3.33;1.10;;;;;;;;;;8305791;28;20029;-58
2022/05/29 13:29:58;;;;;;;3.40;1.00;;;;;;;;;;8311239;28;20030;-58
2022/05/29 13:34:18;;;;;;;1.50;1.08;;;;;;;;;;8304413;28;20095;-58
2022/05/29 13:38:36;;;;;;;1.98;0.98;;;;;;;;;;8306908;28;20031;-59
2022/05/29 13:42:38;;;;;;;1.10;0.90;;;;;;;;;;8309103;28;20025;-58
2022/05/29 13:46:39;;;;;;;2.28;1.00;;;;;;;;;;8309554;28;20102;-58
2022/05/29 13:50:58;;;;;;;1.70;1.00;;;;;;;;;;8310776;28;20417;-58
2022/05/29 13:55:00;;;;;;;2.33;0.90;;;;;;;;;;8310275;28;20063;-60
2022/05/29 14:08:03;;;;;;;1.17;0.80;;;;;;;;;;8310080;28;20067;-58
2022/05/29 14:12:06;;;;;;;1.65;0.90;;;;;;;;;;8308855;28;20033;-58
2022/05/29 14:16:25;;;;;;;2.00;1.00;;;;;;;;;;8308776;28;20037;-59
2022/05/29 14:20:25;;;;;;;1.15;0.93;;;;;;;;;;8309397;28;20071;-58
2022/05/29 14:24:39;;;;;;;2.10;0.70;;;;;;;;;;8309466;28;20116;-57
2022/05/29 14:28:42;;;;;;;2.45;1.10;;;;;;;;;;8309317;28;21032;-59
2022/05/29 14:32:43;;;;;;;1.65;0.82;;;;;;;;;;8307634;28;20467;-58
2022/05/29 14:36:43;;;;;;;2.33;0.98;;;;;;;;;;8309536;28;20112;-58
2022/05/29 14:40:54;;;;;;;1.80;0.80;;;;;;;;;;8311638;28;20132;-58
2022/05/29 14:45:01;;;;;;;1.30;1.00;;;;;;;;;;8309402;28;20027;-58
2022/05/29 14:49:05;;;;;;;1.25;1.15;;;;;;;;;;8308111;28;20731;-57
2022/05/29 14:53:14;;;;;;;1.00;0.85;;;;;;;;;;8306564;28;20048;-59
2022/05/29 14:57:17;;;;;;;1.80;0.90;;;;;;;;;;8308826;28;20020;-58
2022/05/29 15:01:34;;;;;;;1.58;0.90;;;;;;;;;;8307714;28;20034;-58
2022/05/29 15:05:36;;;;;;;1.63;0.90;;;;;;;;;;8308911;28;20131;-58
2022/05/29 15:14:01;;;;;;;1.08;0.80;;;;;;;;;;8304903;28;20031;-57
2022/05/29 15:18:09;;;;;;;2.00;1.15;;;;;;;;;;8308383;28;20033;-57
2022/05/29 15:26:48;;;;;;;1.35;0.90;;;;;;;;;;8308198;28;20071;-58
2022/05/29 15:30:49;;;;;;;1.40;1.00;;;;;;;;;;8305617;28;20091;-57
2022/05/29 15:35:12;;;;;;;1.73;0.98;;;;;;;;;;8304359;28;20032;-58
2022/05/29 15:39:35;;;;;;;2.05;1.02;;;;;;;;;;8303163;28;20549;-59
2022/05/29 15:43:47;;;;;;;2.10;0.90;;;;;;;;;;8299152;28;20580;-58
2022/05/29 15:48:08;;;;;;;2.03;1.00;;;;;;;;;;8300214;28;20055;-58
2022/05/29 15:52:14;;;;;;;1.65;0.93;;;;;;;;;;8300540;28;20050;-58
2022/05/29 15:56:39;;;;;;;1.30;0.80;;;;;;;;;;8303082;28;20032;-58
2022/05/29 16:00:59;;;;;;;2.13;1.00;;;;;;;;;;8299323;28;20463;-57
2022/05/29 16:05:13;;;;;;;3.30;1.00;;;;;;;;;;8301164;28;20025;-58
2022/05/29 16:09:14;;;;;;;1.88;1.10;;;;;;;;;;8302898;28;20094;-59
2022/05/29 16:13:33;;;;;;;2.42;0.85;;;;;;;;;;8299853;28;20107;-58
2022/05/29 16:17:53;;;;;;;1.17;0.95;;;;;;;;;;8301945;28;20513;-61
2022/05/29 16:21:55;;;;;;;0.80;0.80;;;;;;;;;;8301414;28;20021;-57
2022/05/29 16:26:01;;;;;;;1.10;1.00;;;;;;;;;;8301903;28;20034;-59
2022/05/29 16:30:07;;;;;;;1.40;1.10;;;;;;;;;;8297251;28;20210;-58
2022/05/29 16:34:19;;;;;;;1.67;0.95;;;;;;;;;;8298043;28;20776;-58
2022/05/29 16:51:28;;;;;;;1.20;1.10;;;;;;;;;;8300054;28;20044;-59
2022/05/29 16:55:33;;;;;;;1.33;1.20;;;;;;;;;;8299778;28;20051;-58
2022/05/29 16:59:43;;;;;;;1.42;1.10;;;;;;;;;;8305025;28;20557;-58
2022/05/29 17:03:43;;;;;;;1.15;1.02;;;;;;;;;;8304180;28;20182;-58
2022/05/29 17:07:53;;;;;;;1.85;0.95;;;;;;;;;;8303990;28;20041;-58
2022/05/29 17:11:54;;;;;;;1.60;1.10;;;;;;;;;;8306239;28;20251;-58
2022/05/29 17:15:54;;;;;;;1.73;0.93;;;;;;;;;;8304841;28;20206;-58
2022/05/29 17:19:55;;;;;;;1.63;1.10;;;;;;;;;;8305123;28;20029;-58
2022/05/29 17:24:19;;;;;;;3.60;1.00;;;;;;;;;;8305323;28;20494;-59
2022/05/29 17:28:42;;;;;;;1.20;1.10;;;;;;;;;;8304276;28;20376;-58
2022/05/29 17:33:05;;;;;;;4.40;1.37;;;;;;;;;;8306338;28;20047;-57
2022/05/29 17:37:25;;;;;;;1.83;1.23;;;;;;;;;;8308355;28;20048;-58
2022/05/29 17:41:26;;;;;;;2.05;1.15;;;;;;;;;;8307005;28;20158;-59
2022/05/29 17:45:26;;;;;;;2.05;1.33;;;;;;;;;;8307704;28;20037;-57
2022/05/29 17:49:46;;;;;;;1.40;1.30;;;;;;;;;;8321771;28;20029;-58
2022/05/29 17:53:54;;;;;;;3.08;1.48;;;;;;;;;;8307469;28;20708;-58
2022/05/29 17:57:57;;;;;;;3.58;1.58;;;;;;;;;;8307351;28;20120;-59
2022/05/29 18:01:58;;;;;;;1.83;1.40;;;;;;;;;;8306418;28;20157;-58
2022/05/29 18:06:00;;;;;;;1.42;1.30;;;;;;;;;;8308537;28;20013;-58
2022/05/29 18:10:00;;;;;;;2.33;1.33;;;;;;;;;;8303586;28;20037;-58
2022/05/29 18:14:00;;;;;;;1.90;1.20;;;;;;;;;;8299266;28;20025;-58
2022/05/29 18:18:00;;;;;;;3.63;1.40;;;;;;;;;;8304267;28;20461;-58
2022/05/29 18:22:00;;;;;;;2.47;1.40;;;;;;;;;;8302809;28;20844;-58
2022/05/29 18:26:01;;;;;;;0.93;0.93;;;;;;;;;;8302316;28;20878;-58
2022/05/29 18:30:01;;;;;;;1.35;1.13;;;;;;;;;;8300695;28;20048;-58
2022/05/29 18:34:02;;;;;;;1.23;1.13;;;;;;;;;;8301006;28;20075;-58
2022/05/29 18:38:02;;;;;;;1.35;1.25;;;;;;;;;;8300506;28;20080;-58
2022/05/29 18:42:02;;;;;;;1.25;1.15;;;;;;;;;;8300843;28;20433;-58
2022/05/29 18:46:09;;;;;;;1.13;1.00;;;;;;;;;;8300215;28;20152;-58
2022/05/29 18:50:11;;;;;;;1.05;1.00;;;;;;;;;;8299509;28;20026;-58
2022/05/29 18:54:12;;;;;;;4.30;1.27;;;;;;;;;;8300567;28;20025;-58
2022/05/29 18:58:12;;;;;;;1.08;0.90;;;;;;;;;;8299918;28;20539;-57
2022/05/29 19:02:12;;;;;;;0.80;0.80;;;;;;;;;;8302345;28;20452;-57
2022/05/29 19:06:14;;;;;;;0.88;0.88;;;;;;;;;;8299694;28;20441;-59
2022/05/29 19:10:15;;;;;;;2.40;1.00;;;;;;;;;;8304875;28;20077;-58
2022/05/29 19:14:17;;;;;;;0.90;0.90;;;;;;;;;;8309414;28;20052;-59
2022/05/29 19:18:17;;;;;;;1.88;1.05;;;;;;;;;;8303979;28;20045;-57
2022/05/29 19:22:19;;;;;;;1.25;0.95;;;;;;;;;;8301889;28;20402;-57
2022/05/29 19:26:24;;;;;;;0.98;0.88;;;;;;;;;;8305099;28;20055;-57
2022/05/29 19:30:25;;;;;;;1.30;1.10;;;;;;;;;;8303673;28;20853;-59
2022/05/29 19:34:26;;;;;;;1.42;0.90;;;;;;;;;;8304118;28;20025;-57
2022/05/29 19:38:26;;;;;;;1.80;0.70;;;;;;;;;;8304190;28;20033;-58
2022/05/29 19:42:26;;;;;;;2.35;1.00;;;;;;;;;;8304368;28;20267;-58
2022/05/29 19:46:28;;;;;;;1.00;0.90;;;;;;;;;;8305401;28;20037;-58
2022/05/29 19:50:30;;;;;;;2.17;0.90;;;;;;;;;;8303099;28;20568;-62
2022/05/29 19:54:31;;;;;;;0.80;0.80;;;;;;;;;;8304961;28;20029;-57
2022/05/29 19:58:32;;;;;;;1.10;0.77;;;;;;;;;;8304394;28;20746;-57
2022/05/29 20:02:32;;;;;;;2.17;0.70;;;;;;;;;;8303675;28;20049;-58
2022/05/29 20:06:35;;;;;;;1.90;0.90;;;;;;;;;;8304733;28;20025;-58
2022/05/29 20:10:35;;;;;;;0.98;0.80;;;;;;;;;;8303000;28;20618;-58
2022/05/29 20:14:35;;;;;;;1.27;0.80;;;;;;;;;;8300215;28;20120;-59
2022/05/29 20:18:36;;;;;;;0.93;0.90;;;;;;;;;;8304922;28;20052;-58
2022/05/29 20:22:36;;;;;;;1.02;0.82;;;;;;;;;;8303826;28;20104;-59
2022/05/29 20:26:37;;;;;;;1.05;0.82;;;;;;;;;;8307820;28;20037;-57
2022/05/29 20:30:37;;;;;;;2.05;0.80;;;;;;;;;;8307807;28;20121;-58
2022/05/29 20:34:37;;;;;;;1.45;0.80;;;;;;;;;;8314268;28;20021;-58
2022/05/29 20:38:38;;;;;;;1.92;0.75;;;;;;;;;;8312531;28;20031;-58
2022/05/29 20:42:38;;;;;;;0.88;0.80;;;;;;;;;;8316425;28;20494;-57
2022/05/29 20:51:00;;;;;;;0.90;0.90;;;;;;;;;;8314057;28;20137;-58
2022/05/29 20:55:00;;;;;;;2.10;0.90;;;;;;;;;;8314053;28;20021;-58
2022/05/29 20:59:01;;;;;;;0.70;0.70;;;;;;;;;;8312572;28;20021;-57
2022/05/29 21:03:01;;;;;;;1.63;1.00;;;;;;;;;;8311912;28;20222;-58
2022/05/29 21:07:02;;;;;;;1.67;0.90;;;;;;;;;;8311681;28;20132;-57
2022/05/29 21:11:04;;;;;;;2.03;0.93;;;;;;;;;;8314273;28;20057;-57
2022/05/29 21:15:05;;;;;;;1.38;0.90;;;;;;;;;;8311420;28;20021;-57
2022/05/29 21:19:07;;;;;;;1.42;0.80;;;;;;;;;;8311412;28;20082;-56
2022/05/29 21:23:07;;;;;;;0.70;0.70;;;;;;;;;;8309898;28;20025;-57
2022/05/29 21:27:07;;;;;;;0.85;0.85;;;;;;;;;;8312460;28;20033;-57
2022/05/29 21:31:08;;;;;;;0.70;0.70;;;;;;;;;;8311115;28;20034;-60
2022/05/29 21:35:11;;;;;;;1.60;0.80;;;;;;;;;;8313077;28;20067;-58
2022/05/29 21:39:12;;;;;;;1.70;0.80;;;;;;;;;;8312946;28;20037;-58
2022/05/29 21:43:13;;;;;;;0.70;0.70;;;;;;;;;;8310588;28;20577;-57
2022/05/29 21:47:13;;;;;;;1.20;1.00;;;;;;;;;;8312223;28;20038;-58
2022/05/29 21:51:18;;;;;;;1.10;1.00;;;;;;;;;;8312276;28;20033;-57
2022/05/29 21:55:19;;;;;;;1.08;0.95;;;;;;;;;;8313172;28;20264;-59
2022/05/29 21:59:19;;;;;;;1.63;0.75;;;;;;;;;;8310528;28;20037;-58
2022/05/29 22:03:20;;;;;;;1.00;0.80;;;;;;;;;;8309646;28;20037;-58
2022/05/29 22:07:20;;;;;;;1.85;1.00;;;;;;;;;;8311084;28;20037;-58
2022/05/29 22:11:22;;;;;;;1.52;0.80;;;;;;;;;;8313267;28;20033;-58
2022/05/29 22:15:22;;;;;;;1.00;0.90;;;;;;;;;;8311696;28;20791;-58
2022/05/29 22:19:22;;;;;;;0.70;0.70;;;;;;;;;;8313183;28;20068;-58
2022/05/29 22:23:23;;;;;;;1.13;0.90;;;;;;;;;;8311326;28;20056;-57
2022/05/29 22:27:23;;;;;;;1.45;1.00;;;;;;;;;;8311391;28;20274;-58
2022/05/29 22:31:32;;;;;;;0.95;0.90;;;;;;;;;;8311882;28;20045;-59
2022/05/29 22:35:33;;;;;;;0.80;0.80;;;;;;;;;;8308882;28;20032;-57
2022/05/29 22:39:33;;;;;;;0.80;0.80;;;;;;;;;;8309729;28;20037;-58
2022/05/29 22:43:35;;;;;;;3.03;1.00;;;;;;;;;;8309140;28;20112;-57
2022/05/29 22:47:54;;;;;;;1.08;0.80;;;;;;;;;;8310947;28;20520;-58
2022/05/29 22:52:03;;;;;;;1.63;1.00;;;;;;;;;;8309703;28;20037;-58
2022/05/29 22:56:03;;;;;;;1.65;0.90;;;;;;;;;;8310101;28;20052;-58
2022/05/29 23:00:06;;;;;;;1.42;0.98;;;;;;;;;;8308063;28;20033;-58
2022/05/29 23:04:07;;;;;;;2.22;1.00;;;;;;;;;;8309810;28;20025;-58
2022/05/29 23:08:07;;;;;;;1.30;0.90;;;;;;;;;;8309121;28;20040;-58
2022/05/29 23:12:08;;;;;;;0.95;0.90;;;;;;;;;;8309353;28;20498;-58
2022/05/29 23:16:09;;;;;;;1.00;0.90;;;;;;;;;;8308770;28;20048;-57
2022/05/29 23:20:10;;;;;;;1.13;0.90;;;;;;;;;;8308117;28;20078;-57
2022/05/29 23:24:12;;;;;;;1.40;0.98;;;;;;;;;;8309102;28;20022;-57
2022/05/29 23:28:12;;;;;;;1.90;1.10;;;;;;;;;;8309894;28;20021;-58
2022/05/29 23:32:14;;;;;;;1.08;0.98;;;;;;;;;;8306907;28;20038;-57
2022/05/29 23:36:15;;;;;;;1.42;0.93;;;;;;;;;;8307268;28;20017;-57
2022/05/29 23:40:17;;;;;;;1.13;1.00;;;;;;;;;;8308621;28;20037;-56
2022/05/29 23:44:18;;;;;;;3.63;1.23;;;;;;;;;;8306836;28;20037;-57
2022/05/29 23:48:30;;;;;;;1.63;1.20;;;;;;;;;;8307545;28;20752;-58
2022/05/29 23:52:30;;;;;;;1.42;1.10;;;;;;;;;;8307917;28;20035;-57
2022/05/29 23:56:31;;;;;;;1.58;1.10;;;;;;;;;;8309727;28;20033;-58
